Time;durP1;ratioP1;P1;durP2;ratioP2;P2;SDS_P1;SDS_P2;PMS_P1;PMS_P2;Temp;Humidity;BMP_temperature;BMP_pressure;BME280_temperature;BME280_humidity;BME280_pressure;Samples;Min_cycle;Max_cycle;Signal;HPM_P1;HPM_P2
2022/08/22 00:00:12;;;;;;;5.90;5.53;;;;;;;17.82;85.02;101254.44;6082933;23;20084;-88
2022/08/22 00:03:01;;;;;;;6.43;5.30;;;;;;;17.47;85.17;101241.97;6094138;23;20114;-88
2022/08/22 00:05:55;;;;;;;5.75;5.32;;;;;;;17.63;85.38;101255.81;6118325;23;20002;-87
2022/08/22 00:08:34;;;;;;;12.80;5.72;;;;;;;16.74;86.99;101140.19;6096517;23;20349;-89
2022/08/22 00:11:24;;;;;;;6.95;6.35;;;;;;;16.37;88.00;101104.84;6109115;23;20027;-87
2022/08/22 00:13:59;;;;;;;6.35;5.63;;;;;;;16.97;88.31;101218.09;6051721;23;20066;-86
2022/08/22 00:16:40;;;;;;;6.10;5.70;;;;;;;17.33;88.59;101250.91;6103856;23;20218;-87
2022/08/22 00:19:21;;;;;;;6.78;6.28;;;;;;;14.51;89.66;100790.38;6061664;23;20148;-89
2022/08/22 00:22:14;;;;;;;6.20;5.70;;;;;;;17.26;89.77;101249.66;6097933;23;20387;-89
2022/08/22 00:24:50;;;;;;;6.00;5.70;;;;;;;16.89;89.82;101199.25;6078680;23;20021;-87
2022/08/22 00:27:24;;;;;;;6.20;5.80;;;;;;;14.63;89.28;100815.16;6076519;23;20575;-87
2022/08/22 00:30:01;;;;;;;5.82;5.40;;;;;;;17.21;89.19;101250.00;6074414;23;20006;-87
2022/08/22 00:32:34;;;;;;;6.00;5.60;;;;;;;16.79;89.73;101199.00;6093197;23;20050;-88
2022/08/22 00:35:04;;;;;;;7.22;6.53;;;;;;;17.09;90.88;101248.22;6048108;23;20402;-88
2022/08/22 00:37:42;;;;;;;6.28;5.88;;;;;;;16.47;90.70;101167.66;6100052;23;22537;-87
2022/08/22 00:40:52;;;;;;;6.40;6.00;;;;;;;16.99;91.12;101250.66;6043459;23;20482;-87
2022/08/22 00:44:00;;;;;;;5.82;5.47;;;;;;;16.92;91.80;101247.59;6094583;23;20040;-88
2022/08/22 00:46:57;;;;;;;7.15;5.70;;;;;;;16.84;92.03;101252.59;6010513;23;20052;-87
2022/08/22 00:50:15;;;;;;;6.45;5.85;;;;;;;16.38;93.06;101184.22;6077110;23;20090;-87
2022/08/22 00:52:53;;;;;;;6.68;6.28;;;;;;;16.71;92.87;101255.22;6051106;23;20035;-87
2022/08/22 00:56:07;;;;;;;5.72;5.43;;;;;;;16.07;94.44;101167.75;6102645;23;20022;-87
2022/08/22 00:58:53;;;;;;;6.25;5.85;;;;;;;16.53;95.01;101256.47;5908012;24;20067;-87
2022/08/22 01:01:29;;;;;;;5.93;5.53;;;;;;;15.63;95.58;101144.25;6040890;23;20018;-88
2022/08/22 01:04:08;;;;;;;6.57;6.07;;;;;;;16.39;96.23;101251.28;6067319;23;20022;-87
2022/08/22 01:06:34;;;;;;;5.50;5.30;;;;;;;16.34;96.73;101254.25;6006006;23;20102;-88
2022/08/22 01:09:45;;;;;;;6.55;6.15;;;;;;;16.30;97.74;101250.94;6071777;23;20082;-87
2022/08/22 01:12:17;;;;;;;7.38;6.25;;;;;;;16.26;97.54;101256.56;6007412;23;20035;-87
2022/08/22 01:15:04;;;;;;;5.60;5.30;;;;;;;15.33;97.58;101113.56;6037250;23;20405;-87
2022/08/22 01:17:53;;;;;;;5.70;5.38;;;;;;;16.17;98.55;101254.53;6069084;23;20081;-86
2022/08/22 01:20:23;;;;;;;6.18;5.80;;;;;;;16.12;98.60;101253.03;6032968;23;20022;-86
2022/08/22 01:23:05;;;;;;;5.90;5.60;;;;;;;16.07;99.49;101263.06;6036996;23;20038;-87
2022/08/22 01:26:21;;;;;;;6.03;5.63;;;;;;;16.04;100.00;101251.84;6009132;23;20019;-87
2022/08/22 01:29:28;;;;;;;5.82;5.53;;;;;;;15.99;100.00;101246.84;6055153;23;20079;-87
2022/08/22 01:32:24;;;;;;;5.85;5.55;;;;;;;15.95;100.00;101240.06;6080665;23;20016;-87
2022/08/22 01:35:12;;;;;;;6.22;5.72;;;;;;;15.91;100.00;101241.22;6062434;23;20074;-88
2022/08/22 01:38:22;;;;;;;6.20;5.80;;;;;;;15.88;100.00;101244.91;6030281;23;20045;-88
2022/08/22 01:40:49;;;;;;;6.30;5.78;;;;;;;15.86;100.00;101230.09;6072479;23;20024;-87
2022/08/22 01:43:54;;;;;;;5.82;5.53;;;;;;;15.69;100.00;101231.16;6059746;23;20337;-88
2022/08/22 01:46:52;;;;;;;6.10;5.60;;;;;;;15.81;100.00;101240.97;6054050;23;20026;-87
2022/08/22 01:49:46;;;;;;;7.43;5.60;;;;;;;15.32;100.00;101160.31;6117976;23;20466;-87
2022/08/22 01:52:39;;;;;;;6.40;5.90;;;;;;;15.15;100.00;101156.13;6037130;23;20076;-85
2022/08/22 01:55:12;;;;;;;6.82;6.32;;;;;;;15.66;100.00;101228.72;6047122;23;20022;-88
2022/08/22 01:57:56;;;;;;;6.72;6.18;;;;;;;14.08;100.00;100973.53;6106553;23;20020;-85
2022/08/22 02:00:29;;;;;;;6.07;5.70;;;;;;;15.57;100.00;101238.09;6123192;23;20016;-88
2022/08/22 02:03:22;;;;;;;6.93;6.57;;;;;;;12.66;100.00;100772.19;6029464;23;20236;-88
2022/08/22 02:05:58;;;;;;;5.60;5.30;;;;;;;15.18;100.00;101188.63;6091087;23;20557;-87
2022/08/22 02:08:36;;;;;;;6.05;5.35;;;;;;;12.73;100.00;100839.38;6031850;23;20231;-86
2022/08/22 02:11:27;;;;;;;6.78;6.22;;;;;;;15.02;100.00;101189.56;6085772;23;20026;-86
2022/08/22 02:14:15;;;;;;;5.78;5.47;;;;;;;14.85;100.00;101176.56;6042415;23;20517;-86
2022/08/22 02:16:46;;;;;;;6.10;5.65;;;;;;;15.24;100.00;101227.88;6070993;23;20020;-87
2022/08/22 02:19:13;;;;;;;6.15;5.75;;;;;;;15.24;100.00;101218.16;6065921;23;20464;-86
2022/08/22 02:22:10;;;;;;;5.60;5.30;;;;;;;15.22;100.00;101219.19;6098549;23;20009;-88
2022/08/22 02:24:50;;;;;;;5.85;5.45;;;;;;;14.18;100.00;101062.72;6124621;23;20111;-87
2022/08/22 02:27:41;;;;;;;6.50;6.00;;;;;;;15.23;100.00;101215.59;6056469;23;20044;-87
2022/08/22 02:30:16;;;;;;;6.55;6.13;;;;;;;14.54;100.00;101099.19;6117143;23;20065;-89
2022/08/22 02:33:07;;;;;;;5.90;5.55;;;;;;;14.45;100.00;101082.16;6030773;23;20100;-88
2022/08/22 02:35:40;;;;;;;6.97;6.57;;;;;;;15.21;100.00;101207.75;6113454;23;20019;-86
2022/08/22 02:38:30;;;;;;;6.90;6.50;;;;;;;14.57;100.00;101125.44;6094401;23;20030;-87
2022/08/22 02:41:46;;;;;;;5.90;5.60;;;;;;;14.61;100.00;101111.09;6111770;23;20065;-87
2022/08/22 02:44:12;;;;;;;8.02;6.20;;;;;;;15.18;100.00;101209.75;6089168;23;20242;-87
2022/08/22 02:46:38;;;;;;;6.10;5.60;;;;;;;15.15;100.00;101202.84;6059114;23;20076;-88
2022/08/22 02:49:28;;;;;;;7.18;6.78;;;;;;;14.90;100.00;101166.56;6072544;23;20187;-89
2022/08/22 02:52:11;;;;;;;5.68;5.38;;;;;;;14.31;100.00;101100.59;6118875;23;20022;-86
2022/08/22 02:54:55;;;;;;;5.70;5.40;;;;;;;15.09;100.00;101201.44;6063441;23;20026;-87
2022/08/22 02:57:33;;;;;;;5.65;5.28;;;;;;;14.68;100.00;101140.63;6093499;23;20482;-89
2022/08/22 03:00:12;;;;;;;;;;;;;;;15.04;100.00;101206.19;6058881;23;20406;-87
2022/08/22 03:02:58;;;;;;;6.25;5.93;;;;;;;15.01;100.00;101193.16;6098901;23;20131;-89
2022/08/22 03:05:35;;;;;;;5.72;5.43;;;;;;;14.86;100.00;101176.47;6068516;23;20014;-86
2022/08/22 03:08:29;;;;;;;6.25;5.85;;;;;;;14.97;100.00;101191.66;6120530;23;20026;-88
2022/08/22 03:10:59;;;;;;;9.25;5.60;;;;;;;14.95;100.00;101190.91;6045691;23;20029;-87
2022/08/22 03:13:39;;;;;;;5.50;5.20;;;;;;;13.47;100.00;100941.25;6099669;23;20086;-88
2022/08/22 03:16:15;;;;;;;6.35;6.03;;;;;;;14.93;100.00;101183.09;6091721;23;20126;-87
2022/08/22 03:19:00;;;;;;;5.75;5.45;;;;;;;14.69;100.00;101152.88;6099392;23;20125;-89
2022/08/22 03:21:34;;;;;;;5.70;5.40;;;;;;;14.16;100.00;101073.38;6059868;23;20057;-88
2022/08/22 03:24:16;;;;;;;6.68;6.13;;;;;;;13.55;100.00;101011.97;6088112;23;20333;-87
2022/08/22 03:26:55;;;;;;;5.93;5.53;;;;;;;14.49;100.00;101131.19;6055872;23;20011;-86
2022/08/22 03:29:31;;;;;;;10.80;5.25;;;;;;;14.03;100.00;101049.53;6098762;23;20026;-87
2022/08/22 03:32:11;;;;;;;6.63;6.13;;;;;;;13.68;100.00;101012.94;6093734;23;20503;-87
2022/08/22 03:34:58;;;;;;;6.25;5.78;;;;;;;14.77;100.00;101190.25;6080821;23;20104;-87
2022/08/22 03:37:27;;;;;;;5.78;5.43;;;;;;;14.79;100.00;101172.50;6108589;23;20029;-87
2022/08/22 03:40:18;;;;;;;6.22;5.82;;;;;;;11.86;100.00;100690.00;6046331;23;20022;-86
2022/08/22 03:43:04;;;;;;;5.78;5.28;;;;;;;14.19;100.00;101062.59;6113186;23;20603;-87
2022/08/22 03:45:43;;;;;;;6.18;5.72;;;;;;;14.96;100.00;101160.88;6071568;23;20074;-87
2022/08/22 03:48:31;;;;;;;7.78;7.18;;;;;;;14.11;100.00;101007.69;6114597;23;20033;-86
2022/08/22 03:51:44;;;;;;;5.72;5.43;;;;;;;14.23;100.00;101027.19;6068181;23;20017;-86
2022/08/22 03:54:29;;;;;;;7.15;6.05;;;;;;;15.09;100.00;101143.28;6083416;23;20131;-87
2022/08/22 03:56:59;;;;;;;5.75;5.43;;;;;;;15.10;100.00;101149.44;6077157;23;20026;-88
2022/08/22 04:00:17;;;;;;;6.43;5.82;;;;;;;15.09;100.00;101156.50;6107463;23;20017;-89
2022/08/22 04:03:12;;;;;;;6.05;5.65;;;;;;;15.01;100.00;101153.50;6041948;23;20019;-86
2022/08/22 04:06:04;;;;;;;5.43;5.13;;;;;;;15.01;100.00;101147.38;6096585;23;20022;-87
2022/08/22 04:09:16;;;;;;;6.40;6.00;;;;;;;14.74;100.00;101124.41;6062294;23;20018;-88
2022/08/22 04:11:58;;;;;;;5.95;5.45;;;;;;;14.89;100.00;101154.28;6085228;23;20267;-88
2022/08/22 04:14:58;;;;;;;5.47;5.17;;;;;;;13.42;100.00;100906.41;6093281;23;20029;-88
2022/08/22 04:17:32;;;;;;;5.63;5.32;;;;;;;13.90;100.00;101001.91;6093122;23;20030;-87
2022/08/22 04:20:11;;;;;;;7.03;6.45;;;;;;;14.90;100.00;101156.84;6118999;23;20009;-87
2022/08/22 04:23:08;;;;;;;5.50;5.20;;;;;;;14.88;100.00;101150.81;6095240;23;20116;-87
2022/08/22 04:25:40;;;;;;;5.68;5.35;;;;;;;14.90;100.00;101158.63;6070709;23;20014;-88
2022/08/22 04:28:27;;;;;;;12.60;6.85;;;;;;;14.62;100.00;101133.09;6074195;23;20038;-89
2022/08/22 04:31:07;;;;;;;5.88;5.45;;;;;;;14.06;100.00;101016.81;6067859;23;20197;-88
2022/08/22 04:33:51;;;;;;;5.60;5.20;;;;;;;14.89;100.00;101154.28;6094607;23;20017;-88
2022/08/22 04:36:20;;;;;;;5.57;5.18;;;;;;;14.90;100.00;101150.72;6087878;23;20045;-88
2022/08/22 04:38:53;;;;;;;5.88;5.57;;;;;;;14.07;100.00;101031.69;6069616;23;20045;-87
2022/08/22 04:41:49;;;;;;;5.75;5.38;;;;;;;15.00;100.00;101151.81;6115703;23;20033;-87
2022/08/22 04:44:26;;;;;;;11.05;5.50;;;;;;;14.68;100.00;101109.78;6049478;23;20080;-87
2022/08/22 04:46:58;;;;;;;6.05;5.72;;;;;;;15.11;100.00;101156.41;6096475;23;20246;-86
2022/08/22 04:49:35;;;;;;;6.40;5.38;;;;;;;14.42;100.00;101023.38;6067300;23;20096;-85
2022/08/22 04:52:41;;;;;;;6.85;6.45;;;;;;;13.14;100.00;100765.72;6117110;23;20530;-86
2022/08/22 04:55:47;;;;;;;6.85;6.32;;;;;;;15.74;100.00;101141.78;6035807;23;20023;-86
2022/08/22 04:58:35;;;;;;;7.03;6.38;;;;;;;15.76;100.00;101145.16;6109643;23;20006;-86
2022/08/22 05:01:15;;;;;;;6.88;6.47;;;;;;;15.58;100.00;101104.03;6060881;23;20014;-88
2022/08/22 05:04:01;;;;;;;6.03;5.63;;;;;;;14.48;100.00;100938.50;6086425;23;20017;-86
2022/08/22 05:06:33;;;;;;;6.35;5.95;;;;;;;15.89;100.00;101153.13;6063031;23;20045;-87
2022/08/22 05:09:06;;;;;;;7.00;6.60;;;;;;;14.52;100.00;100897.72;6106438;23;20029;-85
2022/08/22 05:11:36;;;;;;;7.72;5.97;;;;;;;15.88;100.00;101101.16;6028781;23;20015;-86
2022/08/22 05:14:07;;;;;;;6.57;6.20;;;;;;;16.22;100.00;101147.34;6090820;23;20428;-87
2022/08/22 05:16:41;;;;;;;6.03;5.63;;;;;;;16.18;100.00;101137.03;6056947;23;20315;-87
2022/08/22 05:19:10;;;;;;;7.25;6.65;;;;;;;15.95;100.00;101119.13;6086142;23;20054;-87
2022/08/22 05:21:44;;;;;;;6.25;5.80;;;;;;;14.44;100.00;100820.81;6043325;23;20003;-86
2022/08/22 05:24:22;;;;;;;6.72;6.20;;;;;;;15.76;100.00;101068.41;6119103;23;20031;-86
2022/08/22 05:26:56;;;;;;;6.75;6.20;;;;;;;16.48;100.00;101139.38;6070179;23;20026;-85
2022/08/22 05:29:27;;;;;;;6.53;5.90;;;;;;;16.07;100.00;101090.97;6112619;23;20041;-87
2022/08/22 05:32:05;;;;;;;6.95;6.30;;;;;;;16.57;100.00;101130.78;6061708;23;20025;-87
2022/08/22 05:34:38;;;;;;;5.93;5.63;;;;;;;15.82;100.00;100996.53;6019429;23;20123;-88
2022/08/22 05:37:28;;;;;;;7.32;6.82;;;;;;;17.15;100.00;101123.13;6076357;23;20006;-87
2022/08/22 05:39:58;;;;;;;6.75;6.15;;;;;;;17.53;98.92;101132.72;6050401;23;20179;-86
2022/08/22 05:42:30;;;;;;;6.60;6.20;;;;;;;16.95;97.17;101088.28;5998105;23;20066;-87
2022/08/22 05:44:56;;;;;;;6.82;6.22;;;;;;;16.36;97.35;101003.34;6048219;23;20026;-85
2022/08/22 05:47:43;;;;;;;5.85;5.55;;;;;;;17.08;99.09;101145.75;6028111;23;20425;-87
2022/08/22 05:50:29;;;;;;;7.15;6.60;;;;;;;16.90;99.98;101143.47;6053071;23;20014;-86
2022/08/22 05:53:10;;;;;;;10.20;5.75;;;;;;;16.14;100.00;101094.91;6034103;23;20019;-87
2022/08/22 05:55:52;;;;;;;7.07;6.65;;;;;;;16.52;100.00;101148.81;6083243;23;20052;-88
2022/08/22 05:58:31;;;;;;;6.43;6.03;;;;;;;16.48;100.00;101147.34;6029672;23;20030;-87
2022/08/22 06:01:12;;;;;;;6.88;6.38;;;;;;;16.74;100.00;101142.84;6083722;23;20014;-86
2022/08/22 06:04:24;;;;;;;7.50;6.90;;;;;;;16.83;100.00;101123.66;6028901;23;20460;-87
2022/08/22 06:06:53;;;;;;;6.82;6.32;;;;;;;17.08;100.00;101166.97;6067975;23;20026;-86
2022/08/22 06:09:31;;;;;;;6.25;5.85;;;;;;;16.15;100.00;100993.31;6029975;23;20030;-86
2022/08/22 06:12:10;;;;;;;7.18;6.78;;;;;;;17.22;100.00;101150.91;6073836;23;20459;-86
2022/08/22 06:15:14;;;;;;;6.53;6.10;;;;;;;16.27;100.00;100990.75;6028054;23;20038;-88
2022/08/22 06:17:55;;;;;;;7.07;6.57;;;;;;;17.48;100.00;101158.72;6065991;23;20076;-86
2022/08/22 06:20:38;;;;;;;7.03;6.35;;;;;;;17.33;99.74;101102.34;6031820;23;20011;-87
2022/08/22 06:23:07;;;;;;;6.95;6.55;;;;;;;16.78;98.84;101063.94;6077740;23;20030;-87
2022/08/22 06:25:37;;;;;;;5.95;5.65;;;;;;;15.27;98.75;100775.53;6040608;23;20086;-87
2022/08/22 06:28:10;;;;;;;7.32;6.72;;;;;;;17.59;98.32;101139.38;6065839;23;20139;-87
2022/08/22 06:30:38;;;;;;;6.35;5.95;;;;;;;17.27;99.03;101105.47;6011334;23;20019;-87
2022/08/22 06:33:11;;;;;;;7.07;6.65;;;;;;;17.64;99.58;101156.66;6057191;23;20093;-87
2022/08/22 06:39:18;;;;;;;6.32;5.93;;;;;;;17.75;98.81;101161.16;6082920;23;20074;-87
2022/08/22 06:41:51;;;;;;;6.20;5.80;;;;;;;17.87;98.80;101154.94;6007527;23;20775;-86
2022/08/22 06:44:25;;;;;;;5.97;5.68;;;;;;;15.44;97.28;100708.22;6056981;23;20085;-86
2022/08/22 06:46:56;;;;;;;6.82;6.32;;;;;;;18.47;96.94;101146.84;6033523;23;20422;-86
2022/08/22 06:49:25;;;;;;;6.50;5.90;;;;;;;18.39;95.40;101073.03;6052366;23;20503;-86
2022/08/22 06:51:58;;;;;;;6.47;6.07;;;;;;;19.23;91.76;101155.00;6037507;23;20168;-87
2022/08/22 06:54:29;;;;;;;7.28;6.55;;;;;;;18.62;91.42;100993.25;6016744;23;20051;-86
2022/08/22 06:57:02;;;;;;;8.07;7.10;;;;;;;19.52;90.14;101115.34;6075425;23;20169;-87
2022/08/22 06:59:34;;;;;;;7.45;6.85;;;;;;;20.03;88.79;101127.09;6013711;23;20030;-86
2022/08/22 07:02:36;;;;;;;8.05;7.40;;;;;;;19.94;86.69;101086.06;6089337;23;20022;-86
2022/08/22 07:05:05;;;;;;;7.88;7.28;;;;;;;20.40;85.26;101123.91;6025457;23;20052;-87
2022/08/22 07:07:34;;;;;;;7.55;6.93;;;;;;;20.32;85.08;101144.06;6091220;23;20018;-87
2022/08/22 07:10:01;;;;;;;8.05;7.22;;;;;;;19.50;84.60;101009.00;6036694;23;20038;-87
2022/08/22 07:12:31;;;;;;;7.65;6.95;;;;;;;18.55;83.95;100846.72;6065870;23;20021;-86
2022/08/22 07:15:07;;;;;;;7.85;7.18;;;;;;;20.12;84.14;101063.16;6040426;23;20029;-87
2022/08/22 07:17:34;;;;;;;7.18;6.70;;;;;;;20.43;83.43;101062.34;6090678;23;20028;-87
2022/08/22 07:20:23;;;;;;;7.57;7.10;;;;;;;21.01;81.55;101113.19;6024124;23;20022;-88
2022/08/22 07:22:53;;;;;;;7.25;6.75;;;;;;;20.27;78.69;100981.06;6086557;23;20015;-89
2022/08/22 07:25:23;;;;;;;6.47;6.07;;;;;;;21.05;77.31;101055.06;6041640;23;20021;-86
2022/08/22 07:28:04;;;;;;;6.72;6.22;;;;;;;21.58;73.62;101123.22;6083366;23;20096;-87
2022/08/22 07:31:02;;;;;;;6.07;5.78;;;;;;;21.89;73.24;101113.22;6024684;23;20544;-87
2022/08/22 07:33:49;;;;;;;6.70;6.20;;;;;;;21.45;72.13;101036.25;6118766;23;20018;-87
2022/08/22 07:36:25;;;;;;;6.88;6.40;;;;;;;22.04;72.41;101119.78;6060381;23;20084;-87
2022/08/22 07:39:12;;;;;;;7.00;6.55;;;;;;;21.32;71.40;100920.84;6111547;23;20009;-86
2022/08/22 07:42:04;;;;;;;6.47;6.07;;;;;;;22.01;71.44;101021.19;6058456;23;20006;-86
2022/08/22 07:45:09;;;;;;;6.88;6.28;;;;;;;22.94;70.25;101114.78;6121351;23;20050;-87
2022/08/22 07:47:53;;;;;;;6.65;6.15;;;;;;;22.70;68.84;101045.78;6037586;23;20030;-87
2022/08/22 07:50:28;;;;;;;7.20;6.50;;;;;;;22.33;67.63;100957.59;6116481;23;20161;-85
2022/08/22 07:53:07;;;;;;;6.63;6.03;;;;;;;23.42;65.74;101118.13;6069760;23;20668;-86
2022/08/22 07:55:36;;;;;;;7.00;6.40;;;;;;;23.39;66.13;101110.38;6097009;23;20101;-87
2022/08/22 07:58:17;;;;;;;9.00;6.28;;;;;;;22.27;65.18;100959.03;6059539;23;20010;-86
2022/08/22 08:00:45;;;;;;;7.40;6.70;;;;;;;22.44;66.07;101016.22;6065645;23;20070;-87
2022/08/22 08:03:12;;;;;;;9.85;6.75;;;;;;;23.28;65.49;101109.63;6096070;23;20045;-87
2022/08/22 08:05:43;;;;;;;7.60;7.07;;;;;;;23.33;64.85;101093.09;6067004;23;20019;-87
2022/08/22 08:08:24;;;;;;;7.15;6.75;;;;;;;23.26;65.77;101070.59;6085932;23;20081;-87
2022/08/22 08:10:55;;;;;;;6.97;6.38;;;;;;;23.49;63.41;101042.34;6084274;23;20016;-87
2022/08/22 08:13:34;;;;;;;6.50;6.03;;;;;;;23.36;63.70;101004.41;6052836;23;20021;-87
2022/08/22 08:16:03;;;;;;;7.20;6.80;;;;;;;22.84;61.07;100910.59;6124554;23;20021;-86
2022/08/22 08:18:33;;;;;;;6.55;6.15;;;;;;;23.96;61.79;101041.16;6064917;23;20021;-87
2022/08/22 08:21:05;;;;;;;6.90;6.50;;;;;;;24.22;59.20;101085.88;6088939;23;20069;-87
2022/08/22 08:23:39;;;;;;;6.82;6.28;;;;;;;24.34;59.59;101083.78;6087029;23;20372;-87
2022/08/22 08:26:21;;;;;;;7.07;6.57;;;;;;;24.32;58.37;101026.75;6119455;23;20025;-87
2022/08/22 08:28:51;;;;;;;6.30;5.90;;;;;;;24.50;56.60;101073.13;6063274;23;20014;-87
2022/08/22 08:31:26;;;;;;;6.40;6.00;;;;;;;24.53;56.06;101074.63;6125582;23;20006;-86
2022/08/22 08:34:02;;;;;;;6.25;5.80;;;;;;;24.24;53.07;101025.72;6046236;23;20017;-87
2022/08/22 08:36:42;;;;;;;5.93;5.63;;;;;;;24.37;53.18;101068.16;6094813;23;20010;-87
2022/08/22 08:39:20;;;;;;;6.95;6.35;;;;;;;24.22;54.31;101076.00;6055019;23;20020;-86
2022/08/22 08:41:55;;;;;;;7.45;6.00;;;;;;;24.44;52.46;101063.84;6123641;23;20025;-88
2022/08/22 08:44:49;;;;;;;6.40;6.00;;;;;;;24.21;51.94;101031.38;6065939;23;20676;-88
2022/08/22 08:47:34;;;;;;;6.60;6.10;;;;;;;24.28;51.83;101069.97;6090935;23;20077;-86
2022/08/22 08:50:24;;;;;;;6.75;6.35;;;;;;;24.33;50.60;101068.66;6055120;23;20110;-88
2022/08/22 08:53:36;;;;;;;6.32;5.88;;;;;;;23.89;51.30;100968.59;6033776;23;20046;-86
2022/08/22 08:56:24;;;;;;;6.25;5.95;;;;;;;24.57;49.90;101065.25;6068799;23;20385;-87
2022/08/22 08:59:02;;;;;;;6.10;5.70;;;;;;;24.69;49.98;101059.41;6067917;23;20253;-88
2022/08/22 09:01:55;;;;;;;5.80;5.50;;;;;;;24.79;48.80;101016.31;6125124;23;20014;-86
2022/08/22 09:04:37;;;;;;;5.95;5.65;;;;;;;24.38;48.14;100989.38;6059100;23;20034;-88
2022/08/22 09:07:22;;;;;;;6.30;5.90;;;;;;;24.58;48.26;100935.47;6109339;23;20013;-87
2022/08/22 09:10:03;;;;;;;6.30;5.90;;;;;;;25.28;47.16;101045.13;6059264;23;20070;-86
2022/08/22 09:13:02;;;;;;;6.30;5.80;;;;;;;25.02;46.46;100999.59;6118201;23;20180;-87
2022/08/22 09:16:06;;;;;;;8.82;5.70;;;;;;;25.26;48.00;100969.22;6010606;23;20034;-88
2022/08/22 09:19:05;;;;;;;6.63;6.07;;;;;;;25.38;46.01;101032.34;6114458;23;20013;-86
2022/08/22 09:21:57;;;;;;;5.80;5.50;;;;;;;24.47;47.08;100974.13;6035349;23;20022;-88
2022/08/22 09:25:01;;;;;;;5.90;5.60;;;;;;;24.82;47.11;100964.19;6089817;23;20113;-87
2022/08/22 09:27:52;;;;;;;6.50;5.90;;;;;;;24.27;45.69;100925.31;6079930;23;20034;-87
2022/08/22 09:30:23;;;;;;;5.88;5.57;;;;;;;24.52;45.80;100928.91;6113392;23;20026;-86
2022/08/22 09:33:32;;;;;;;6.00;5.68;;;;;;;25.50;46.10;101045.41;6048305;23;20022;-86
2022/08/22 09:36:05;;;;;;;6.78;6.38;;;;;;;25.14;45.73;101017.03;6085234;23;20032;-87
2022/08/22 09:38:48;;;;;;;5.93;5.63;;;;;;;24.48;45.64;100873.88;6072046;23;20037;-88
2022/08/22 09:41:47;;;;;;;6.30;5.88;;;;;;;25.77;46.05;101044.22;6083722;23;21030;-88
2022/08/22 09:44:40;;;;;;;6.30;5.90;;;;;;;25.16;44.42;100949.72;6078028;23;20035;-87
2022/08/22 09:47:17;;;;;;;6.93;6.53;;;;;;;24.61;43.92;100884.97;6057208;23;20077;-87
2022/08/22 09:50:12;;;;;;;5.63;5.30;;;;;;;25.93;43.76;101044.19;6086041;23;20030;-87
2022/08/22 09:53:02;;;;;;;5.65;5.35;;;;;;;26.28;42.63;101042.09;6090756;23;20018;-87
2022/08/22 09:55:47;;;;;;;6.10;5.60;;;;;;;26.83;42.21;101035.72;6074701;23;20038;-87
2022/08/22 09:58:27;;;;;;;7.07;6.72;;;;;;;26.53;41.54;100927.03;6109445;23;20030;-84
2022/08/22 10:01:22;;;;;;;6.10;5.80;;;;;;;27.52;40.55;101034.03;6068686;23;20049;-86
2022/08/22 10:04:13;;;;;;;6.20;5.82;;;;;;;27.71;40.67;101021.91;6118271;23;20048;-87
2022/08/22 10:07:09;;;;;;;5.90;5.60;;;;;;;27.05;39.55;100847.34;6095713;23;20017;-88
2022/08/22 10:09:52;;;;;;;6.20;5.90;;;;;;;28.72;39.11;100947.38;6097526;23;20071;-87
2022/08/22 10:12:29;;;;;;;6.15;5.85;;;;;;;28.55;36.63;100956.78;6056086;23;20286;-86
2022/08/22 10:15:10;;;;;;;7.32;6.65;;;;;;;26.49;38.27;100819.94;6099393;23;20025;-86
2022/08/22 10:17:52;;;;;;;6.38;6.00;;;;;;;27.39;38.42;100978.91;6086755;23;20037;-86
2022/08/22 10:20:28;;;;;;;6.20;5.80;;;;;;;27.26;38.73;100935.56;6066305;23;20106;-85
2022/08/22 10:23:18;;;;;;;6.50;6.10;;;;;;;27.98;38.12;101032.03;6091052;23;20034;-86
2022/08/22 10:26:00;;;;;;;6.15;5.85;;;;;;;27.15;38.89;100947.59;6062105;23;20222;-86
2022/08/22 10:28:47;;;;;;;6.25;5.85;;;;;;;27.76;40.17;101012.19;6119524;23;20019;-87
2022/08/22 10:31:29;;;;;;;6.80;6.40;;;;;;;28.02;38.97;101043.31;6058043;23;20084;-86
2022/08/22 10:34:18;;;;;;;6.03;5.72;;;;;;;28.01;38.82;101023.59;6102946;23;20021;-88
2022/08/22 10:37:08;;;;;;;6.20;5.85;;;;;;;27.07;39.29;101009.63;6066387;23;20102;-86
2022/08/22 10:40:06;;;;;;;6.40;5.90;;;;;;;27.34;38.85;101058.63;6129312;23;20029;-88
2022/08/22 10:42:44;;;;;;;6.20;5.63;;;;;;;27.81;39.51;101044.84;6043571;23;20018;-87
2022/08/22 10:45:28;;;;;;;7.18;6.88;;;;;;;26.87;39.37;100920.41;6114509;23;20035;-88
2022/08/22 10:48:05;;;;;;;7.03;6.53;;;;;;;27.57;39.19;101050.50;6085564;23;20048;-87
2022/08/22 10:50:50;;;;;;;6.25;5.85;;;;;;;27.92;38.98;101048.16;6122512;23;20033;-85
2022/08/22 10:53:32;;;;;;;6.72;6.32;;;;;;;28.33;38.15;101040.41;6076713;23;20014;-86
2022/08/22 10:56:41;;;;;;;6.82;6.32;;;;;;;27.99;38.44;101043.69;6128861;23;20080;-86
2022/08/22 10:59:12;;;;;;;8.57;6.53;;;;;;;28.58;38.00;101037.41;6068257;23;20030;-87
2022/08/22 11:02:00;;;;;;;6.00;5.70;;;;;;;28.15;37.74;100927.47;6128268;23;20013;-86
2022/08/22 11:04:58;;;;;;;6.20;5.70;;;;;;;29.22;38.65;101023.91;6109044;23;20364;-86
2022/08/22 11:07:27;;;;;;;6.70;6.30;;;;;;;29.35;36.09;101023.22;6079768;23;20085;-85
2022/08/22 11:10:04;;;;;;;6.10;5.80;;;;;;;29.26;36.18;101002.75;6121523;23;20006;-86
2022/08/22 11:12:33;;;;;;;6.53;6.05;;;;;;;29.57;37.94;101015.06;6088681;23;20061;-87
2022/08/22 11:15:39;;;;;;;6.90;6.40;;;;;;;29.14;36.66;100950.25;6134202;23;20056;-85
2022/08/22 11:18:41;;;;;;;7.43;6.80;;;;;;;29.49;36.61;101012.47;6074864;23;20037;-86
2022/08/22 11:21:58;;;;;;;6.32;6.03;;;;;;;29.53;37.37;101000.22;6094970;23;20021;-87
2022/08/22 11:24:30;;;;;;;6.20;5.70;;;;;;;29.97;36.64;101010.75;5990345;23;20174;-86
2022/08/22 11:27:40;;;;;;;6.93;6.53;;;;;;;30.20;35.54;101006.88;6019020;23;20027;-86
2022/08/22 11:30:22;;;;;;;7.20;6.78;;;;;;;29.64;35.80;101022.16;5964781;23;20011;-86
2022/08/22 11:32:57;;;;;;;6.95;6.30;;;;;;;29.44;36.10;101021.19;6051677;23;20034;-87
2022/08/22 11:35:35;;;;;;;6.20;5.90;;;;;;;29.11;36.15;101020.91;6115180;23;20029;-86
2022/08/22 11:38:33;;;;;;;7.05;6.55;;;;;;;28.14;37.60;101017.53;6061980;23;20029;-87
2022/08/22 11:41:11;;;;;;;7.10;6.70;;;;;;;27.84;38.00;101041.81;6101205;23;20413;-86
2022/08/22 11:44:01;;;;;;;6.32;5.93;;;;;;;28.68;38.40;101032.53;6047591;23;20019;-88
2022/08/22 11:46:35;;;;;;;6.15;5.75;;;;;;;27.72;37.30;100932.69;6113263;23;20319;-86
2022/08/22 11:49:27;;;;;;;7.00;6.60;;;;;;;28.79;37.22;101037.44;6071490;23;20022;-86
2022/08/22 11:52:22;;;;;;;6.38;5.97;;;;;;;29.02;36.66;101025.59;6088566;23;20025;-87
2022/08/22 11:55:17;;;;;;;6.03;5.72;;;;;;;28.81;36.53;101031.84;6097469;23;20016;-86
2022/08/22 11:57:48;;;;;;;6.75;6.10;;;;;;;28.82;36.20;100980.31;6111543;23;20041;-87
2022/08/22 12:00:24;;;;;;;6.03;5.63;;;;;;;28.90;36.78;101025.25;6064023;23;20472;-86
2022/08/22 12:03:31;;;;;;;6.40;5.93;;;;;;;28.49;36.81;101044.75;6047360;23;20077;-87
2022/08/22 12:06:33;;;;;;;6.43;6.13;;;;;;;28.07;36.80;100926.75;6094212;23;20029;-86
2022/08/22 12:09:17;;;;;;;6.68;6.28;;;;;;;29.15;36.66;101030.31;6116509;23;20021;-85
2022/08/22 12:11:57;;;;;;;6.50;5.93;;;;;;;29.19;37.44;101026.19;6036651;23;20533;-87
2022/08/22 12:14:52;;;;;;;6.30;6.00;;;;;;;28.87;36.66;101030.22;6128668;23;20419;-86
2022/08/22 12:17:55;;;;;;;6.22;5.93;;;;;;;29.05;36.08;101027.91;6059661;23;20018;-86
2022/08/22 12:20:49;;;;;;;6.20;5.90;;;;;;;29.26;36.47;101021.66;6096717;23;20020;-86
2022/08/22 12:24:02;;;;;;;6.07;5.78;;;;;;;29.28;36.09;101025.00;6053729;23;20267;-86
2022/08/22 12:27:14;;;;;;;6.45;6.15;;;;;;;29.43;35.55;101014.13;6054643;23;20017;-87
2022/08/22 12:30:17;;;;;;;6.57;6.10;;;;;;;30.00;34.27;101020.31;6063788;23;20015;-86
2022/08/22 12:33:02;;;;;;;6.18;5.82;;;;;;;30.36;34.59;101011.13;6116489;23;20104;-86
2022/08/22 12:35:39;;;;;;;7.30;6.60;;;;;;;29.91;34.18;100989.91;6077259;23;20030;-86
2022/08/22 12:38:27;;;;;;;6.90;6.50;;;;;;;30.17;34.67;101004.56;6034892;23;20042;-86
2022/08/22 12:41:19;;;;;;;6.72;6.28;;;;;;;29.88;36.37;101011.94;6095158;23;20005;-87